Time;durP1;ratioP1;P1;durP2;ratioP2;P2;SDS_P1;SDS_P2;PMS_P1;PMS_P2;Temp;Humidity;BMP_temperature;BMP_pressure;BME280_temperature;BME280_humidity;BME280_pressure;Samples;Min_cycle;Max_cycle;Signal;HPM_P1;HPM_P2
2022/06/22 00:00:08;;;;;;;7.75;6.50;;;;;;;;;;5071401;28;20514;-74
2022/06/22 00:02:36;;;;;;;6.72;5.90;;;;;;;;;;5073253;28;20419;-74
2022/06/22 00:05:04;;;;;;;8.30;6.53;;;;;;;;;;5075823;28;20432;-74
2022/06/22 00:07:34;;;;;;;9.82;5.90;;;;;;;;;;5073551;28;20437;-74
2022/06/22 00:10:09;;;;;;;7.47;6.10;;;;;;;;;;5075878;28;20438;-74
2022/06/22 00:12:36;;;;;;;6.70;5.80;;;;;;;;;;5076971;28;20918;-74
2022/06/22 00:15:03;;;;;;;7.70;6.80;;;;;;;;;;5072105;28;20950;-74
2022/06/22 00:17:32;;;;;;;8.32;5.53;;;;;;;;;;5070957;28;20438;-74
2022/06/22 00:19:59;;;;;;;7.80;6.68;;;;;;;;;;5075388;28;20460;-74
2022/06/22 00:22:26;;;;;;;8.70;6.65;;;;;;;;;;5074250;28;20431;-74
2022/06/22 00:24:59;;;;;;;7.68;6.40;;;;;;;;;;5071140;28;20502;-74
2022/06/22 00:27:30;;;;;;;7.50;6.77;;;;;;;;;;5072409;28;20436;-74
2022/06/22 00:30:08;;;;;;;8.02;6.40;;;;;;;;;;5072755;28;20913;-74
2022/06/22 00:32:34;;;;;;;8.63;6.90;;;;;;;;;;5073596;28;20430;-74
2022/06/22 00:35:15;;;;;;;8.60;7.60;;;;;;;;;;5074150;28;20876;-74
2022/06/22 00:37:42;;;;;;;9.02;8.10;;;;;;;;;;5073809;28;20928;-74
2022/06/22 00:40:15;;;;;;;11.85;8.88;;;;;;;;;;5076120;28;20439;-74
2022/06/22 00:42:44;;;;;;;11.77;8.40;;;;;;;;;;5071843;28;20426;-74
2022/06/22 00:45:12;;;;;;;11.50;7.63;;;;;;;;;;5077260;28;20427;-74
2022/06/22 00:47:41;;;;;;;11.55;7.57;;;;;;;;;;5075030;28;20417;-74
2022/06/22 00:50:12;;;;;;;9.73;7.25;;;;;;;;;;5068786;28;20435;-74
2022/06/22 00:52:40;;;;;;;9.13;8.23;;;;;;;;;;5072390;28;20415;-74
2022/06/22 00:55:16;;;;;;;8.65;7.57;;;;;;;;;;5074626;28;20523;-74
2022/06/22 00:57:47;;;;;;;8.30;7.50;;;;;;;;;;5072838;28;20786;-74
2022/06/22 01:00:15;;;;;;;10.38;7.90;;;;;;;;;;5075465;28;20919;-74
2022/06/22 01:02:46;;;;;;;11.05;9.10;;;;;;;;;;5079200;28;20947;-74
2022/06/22 01:05:19;;;;;;;11.80;8.52;;;;;;;;;;5078759;28;20423;-74
2022/06/22 01:07:48;;;;;;;9.77;8.25;;;;;;;;;;5076949;28;20427;-74
2022/06/22 01:10:17;;;;;;;10.77;8.02;;;;;;;;;;5076109;28;20435;-74
2022/06/22 01:12:48;;;;;;;9.35;7.50;;;;;;;;;;5077963;28;20433;-73
2022/06/22 01:15:19;;;;;;;8.85;7.53;;;;;;;;;;5076496;28;20436;-74
2022/06/22 01:17:48;;;;;;;8.38;7.47;;;;;;;;;;5073438;28;20431;-74
2022/06/22 01:20:19;;;;;;;10.27;8.50;;;;;;;;;;5077023;28;20442;-74
2022/06/22 01:22:53;;;;;;;9.70;7.80;;;;;;;;;;5074779;28;20428;-74
2022/06/22 01:25:29;;;;;;;11.43;7.20;;;;;;;;;;5078559;28;20420;-74
2022/06/22 01:27:57;;;;;;;10.13;7.70;;;;;;;;;;5076693;28;20468;-74
2022/06/22 01:30:28;;;;;;;7.63;6.83;;;;;;;;;;5077800;28;20509;-74
2022/06/22 01:32:55;;;;;;;8.43;7.43;;;;;;;;;;5072665;28;20428;-74
2022/06/22 01:35:22;;;;;;;8.65;7.30;;;;;;;;;;5081159;28;20417;-74
2022/06/22 01:37:48;;;;;;;10.98;7.78;;;;;;;;;;5075925;28;20413;-73
2022/06/22 01:40:16;;;;;;;8.77;7.00;;;;;;;;;;5080818;28;20530;-74
2022/06/22 01:42:44;;;;;;;10.63;8.17;;;;;;;;;;5076887;28;20431;-74
2022/06/22 01:45:18;;;;;;;8.30;7.50;;;;;;;;;;5076440;28;20429;-74
2022/06/22 01:47:48;;;;;;;8.40;7.45;;;;;;;;;;5077329;28;20411;-74
2022/06/22 01:50:16;;;;;;;10.23;7.33;;;;;;;;;;5077108;28;20819;-74
2022/06/22 01:52:51;;;;;;;8.50;7.47;;;;;;;;;;5072668;28;20500;-74
2022/06/22 01:55:25;;;;;;;8.25;7.35;;;;;;;;;;5077512;28;20524;-74
2022/06/22 01:57:56;;;;;;;8.43;7.47;;;;;;;;;;5074626;28;20516;-74
2022/06/22 02:00:25;;;;;;;8.73;7.28;;;;;;;;;;5077181;28;20800;-74
2022/06/22 02:02:54;;;;;;;8.10;7.30;;;;;;;;;;5077461;28;20439;-74
2022/06/22 02:05:23;;;;;;;8.20;7.40;;;;;;;;;;5077158;28;20454;-74
2022/06/22 02:07:52;;;;;;;8.65;7.75;;;;;;;;;;5075742;28;20422;-74
2022/06/22 02:10:23;;;;;;;10.88;8.30;;;;;;;;;;5076848;28;20423;-74
2022/06/22 02:12:52;;;;;;;8.90;8.00;;;;;;;;;;5074396;28;20421;-74
2022/06/22 02:15:21;;;;;;;9.50;7.70;;;;;;;;;;5075061;28;20429;-74
2022/06/22 02:17:50;;;;;;;8.50;7.45;;;;;;;;;;5074596;28;20415;-74
2022/06/22 02:20:40;;;;;;;9.95;8.48;;;;;;;;;;5075085;28;20439;-74
2022/06/22 02:23:13;;;;;;;11.60;9.57;;;;;;;;;;5052540;28;20498;-74
2022/06/22 02:25:42;;;;;;;11.23;8.85;;;;;;;;;;5077746;28;20421;-74
2022/06/22 02:28:08;;;;;;;9.73;8.10;;;;;;;;;;5076334;28;20427;-74
2022/06/22 02:30:35;;;;;;;9.88;8.55;;;;;;;;;;5077897;28;20429;-74
2022/06/22 02:33:03;;;;;;;11.45;7.90;;;;;;;;;;5076501;28;20521;-74
2022/06/22 02:35:29;;;;;;;11.48;8.10;;;;;;;;;;5076636;28;20429;-74
2022/06/22 02:38:00;;;;;;;7.85;7.05;;;;;;;;;;5074288;28;20418;-74
2022/06/22 02:40:28;;;;;;;9.02;7.68;;;;;;;;;;5078424;28;20429;-74
2022/06/22 02:45:39;;;;;;;8.40;7.50;;;;;;;;;;5075351;28;20423;-74
2022/06/22 02:48:22;;;;;;;10.15;8.25;;;;;;;;;;5074391;28;20426;-74
2022/06/22 02:50:50;;;;;;;9.55;8.55;;;;;;;;;;5075071;28;20423;-74
2022/06/22 02:53:19;;;;;;;8.70;7.82;;;;;;;;;;5072607;28;20426;-74
2022/06/22 02:55:45;;;;;;;9.32;7.45;;;;;;;;;;5076302;28;20427;-74
2022/06/22 02:58:23;;;;;;;8.90;8.00;;;;;;;;;;5071256;28;21393;-73
2022/06/22 03:00:49;;;;;;;8.00;7.23;;;;;;;;;;5075380;28;20425;-74
2022/06/22 03:03:17;;;;;;;11.23;7.80;;;;;;;;;;5077508;28;20411;-74
2022/06/22 03:05:45;;;;;;;10.70;7.82;;;;;;;;;;5075216;28;20438;-73
2022/06/22 03:08:12;;;;;;;9.00;7.70;;;;;;;;;;5073998;28;20437;-74
2022/06/22 03:10:41;;;;;;;8.73;6.90;;;;;;;;;;5078081;28;20453;-74
2022/06/22 03:13:09;;;;;;;8.25;7.45;;;;;;;;;;5075564;28;20421;-74
2022/06/22 03:15:36;;;;;;;8.52;7.60;;;;;;;;;;5070805;28;20938;-74
2022/06/22 03:18:04;;;;;;;8.50;7.70;;;;;;;;;;5074026;28;20533;-74
2022/06/22 03:20:35;;;;;;;9.38;8.07;;;;;;;;;;5074265;28;20691;-74
2022/06/22 03:23:06;;;;;;;8.68;7.88;;;;;;;;;;5072830;28;20476;-74
2022/06/22 03:25:45;;;;;;;8.93;8.02;;;;;;;;;;5074641;28;20426;-74
2022/06/22 03:28:14;;;;;;;7.80;7.00;;;;;;;;;;5074168;28;20430;-74
2022/06/22 03:30:45;;;;;;;10.00;8.57;;;;;;;;;;5072485;28;20436;-74
2022/06/22 03:33:12;;;;;;;8.68;7.78;;;;;;;;;;5074380;28;20450;-74
2022/06/22 03:35:41;;;;;;;9.57;8.57;;;;;;;;;;5074598;28;20421;-74
2022/06/22 03:38:09;;;;;;;9.25;8.35;;;;;;;;;;5074466;28;20431;-74
2022/06/22 03:40:37;;;;;;;9.88;8.57;;;;;;;;;;5075066;28;20429;-74
2022/06/22 03:43:06;;;;;;;9.98;8.55;;;;;;;;;;5071587;28;20422;-74
2022/06/22 03:45:33;;;;;;;10.00;8.95;;;;;;;;;;5072672;28;20795;-74
2022/06/22 03:48:02;;;;;;;9.05;8.15;;;;;;;;;;5075808;28;20417;-74
2022/06/22 03:50:38;;;;;;;9.60;8.25;;;;;;;;;;5075261;28;20438;-74
2022/06/22 03:53:10;;;;;;;9.25;7.90;;;;;;;;;;5075346;28;20422;-74
2022/06/22 03:55:38;;;;;;;9.70;8.50;;;;;;;;;;5074785;28;20434;-74
2022/06/22 03:58:06;;;;;;;10.32;9.27;;;;;;;;;;5073067;28;20442;-74
2022/06/22 04:00:34;;;;;;;11.23;9.30;;;;;;;;;;5075982;28;20435;-73
2022/06/22 04:03:00;;;;;;;10.60;9.50;;;;;;;;;;5072304;28;20422;-74
2022/06/22 04:05:31;;;;;;;10.20;9.20;;;;;;;;;;5075973;28;20833;-74
2022/06/22 04:07:57;;;;;;;10.55;9.43;;;;;;;;;;5076529;28;20419;-74
2022/06/22 04:10:38;;;;;;;11.27;9.38;;;;;;;;;;5074070;28;20992;-74
2022/06/22 04:13:17;;;;;;;9.77;8.70;;;;;;;;;;5075701;28;20899;-74
2022/06/22 04:15:50;;;;;;;10.20;9.18;;;;;;;;;;5075528;28;20963;-74
2022/06/22 04:18:19;;;;;;;12.13;9.95;;;;;;;;;;5074042;28;20515;-74
2022/06/22 04:20:54;;;;;;;14.90;10.60;;;;;;;;;;5070661;28;20464;-74
2022/06/22 04:23:24;;;;;;;13.07;11.30;;;;;;;;;;5072529;28;20420;-74
2022/06/22 04:25:54;;;;;;;13.50;10.82;;;;;;;;;;5069094;28;20434;-74
2022/06/22 04:28:21;;;;;;;15.77;11.40;;;;;;;;;;5050446;28;20430;-74
2022/06/22 04:30:49;;;;;;;13.75;12.35;;;;;;;;;;5069554;28;20435;-74
2022/06/22 04:33:18;;;;;;;16.20;12.77;;;;;;;;;;5074092;28;21018;-74
2022/06/22 04:35:49;;;;;;;14.90;12.02;;;;;;;;;;5076622;28;20425;-73
2022/06/22 04:38:20;;;;;;;15.45;12.73;;;;;;;;;;5078565;28;20431;-73
2022/06/22 04:40:51;;;;;;;16.17;13.05;;;;;;;;;;5080737;28;20984;-74
2022/06/22 04:43:19;;;;;;;15.40;13.20;;;;;;;;;;5078919;28;20426;-74
2022/06/22 04:45:47;;;;;;;17.85;14.50;;;;;;;;;;5081635;28;20427;-74
2022/06/22 04:48:15;;;;;;;17.80;14.50;;;;;;;;;;5079699;28;20441;-73
2022/06/22 04:50:42;;;;;;;18.50;15.85;;;;;;;;;;5079485;28;20435;-74
2022/06/22 04:53:15;;;;;;;17.98;15.20;;;;;;;;;;5078937;28;20778;-74
2022/06/22 04:55:42;;;;;;;22.05;16.55;;;;;;;;;;5075732;28;20510;-74
2022/06/22 04:58:15;;;;;;;19.57;16.27;;;;;;;;;;5071525;28;20419;-74
2022/06/22 05:00:45;;;;;;;21.60;18.20;;;;;;;;;;5073947;28;20434;-73
2022/06/22 05:03:13;;;;;;;26.70;19.63;;;;;;;;;;5076481;28;20431;-73
2022/06/22 05:05:39;;;;;;;27.10;20.95;;;;;;;;;;5076905;28;20480;-74
2022/06/22 05:08:10;;;;;;;28.85;21.83;;;;;;;;;;5079540;28;20427;-74
2022/06/22 05:10:40;;;;;;;27.55;21.33;;;;;;;;;;5078690;28;20987;-74
2022/06/22 05:13:12;;;;;;;31.52;23.85;;;;;;;;;;5080460;28;20413;-74
2022/06/22 05:15:39;;;;;;;32.78;23.92;;;;;;;;;;5070802;28;20434;-74
2022/06/22 05:18:11;;;;;;;31.85;23.38;;;;;;;;;;5072570;28;20453;-74
2022/06/22 05:20:41;;;;;;;27.70;21.50;;;;;;;;;;5078685;28;20426;-74
2022/06/22 05:23:08;;;;;;;26.58;20.98;;;;;;;;;;5078831;28;20427;-74
2022/06/22 05:25:35;;;;;;;29.48;21.92;;;;;;;;;;5081193;28;20420;-74
2022/06/22 05:28:04;;;;;;;25.85;20.70;;;;;;;;;;5076088;28;20419;-74
2022/06/22 05:30:34;;;;;;;31.90;21.10;;;;;;;;;;5076250;28;20426;-74
2022/06/22 05:33:02;;;;;;;26.98;20.67;;;;;;;;;;5078477;28;20418;-74
2022/06/22 05:35:33;;;;;;;29.50;21.73;;;;;;;;;;5077113;28;20439;-74
2022/06/22 05:38:01;;;;;;;25.75;20.30;;;;;;;;;;5069507;28;20433;-74
2022/06/22 05:40:29;;;;;;;24.65;20.05;;;;;;;;;;5087548;22;20450;-72
2022/06/22 05:42:55;;;;;;;25.20;18.75;;;;;;;;;;5073356;28;20433;-72
2022/06/22 05:45:37;;;;;;;24.58;18.10;;;;;;;;;;5074448;28;20431;-73
2022/06/22 05:48:04;;;;;;;26.83;19.38;;;;;;;;;;5078205;28;20424;-73
2022/06/22 05:50:34;;;;;;;24.95;19.35;;;;;;;;;;5059680;28;20433;-73
2022/06/22 05:53:04;;;;;;;25.55;19.20;;;;;;;;;;5041000;28;20413;-73
2022/06/22 05:55:32;;;;;;;27.77;18.75;;;;;;;;;;5042235;28;20443;-72
2022/06/22 05:58:02;;;;;;;21.73;17.77;;;;;;;;;;5040680;28;20417;-73
2022/06/22 06:00:29;;;;;;;22.75;17.08;;;;;;;;;;5040931;28;20764;-73
2022/06/22 06:03:00;;;;;;;20.13;15.50;;;;;;;;;;5043087;28;20510;-72
2022/06/22 06:05:29;;;;;;;20.15;16.58;;;;;;;;;;5043089;28;20796;-72
2022/06/22 06:07:58;;;;;;;19.77;16.50;;;;;;;;;;5040683;28;20435;-72
2022/06/22 06:10:26;;;;;;;21.63;14.40;;;;;;;;;;5039387;28;20441;-72
2022/06/22 06:12:56;;;;;;;18.38;13.00;;;;;;;;;;5039355;28;20431;-72
2022/06/22 06:15:22;;;;;;;18.42;14.05;;;;;;;;;;5042793;28;20415;-72
2022/06/22 06:17:55;;;;;;;18.63;13.57;;;;;;;;;;5041563;28;20421;-73
2022/06/22 06:20:23;;;;;;;18.87;12.23;;;;;;;;;;5042424;28;20434;-73
2022/06/22 06:22:50;;;;;;;18.15;12.48;;;;;;;;;;5039550;28;20423;-72
2022/06/22 06:28:08;;;;;;;15.77;11.80;;;;;;;;;;5040021;28;20426;-72
2022/06/22 06:30:37;;;;;;;17.30;11.10;;;;;;;;;;5039358;28;20955;-72
2022/06/22 06:33:06;;;;;;;11.73;9.90;;;;;;;;;;5040464;28;20436;-72
2022/06/22 06:35:35;;;;;;;16.33;10.48;;;;;;;;;;5040437;28;20437;-72
2022/06/22 06:38:05;;;;;;;15.13;9.25;;;;;;;;;;5040770;28;20417;-72
2022/06/22 06:40:36;;;;;;;11.50;8.77;;;;;;;;;;5041277;28;20428;-72
2022/06/22 06:43:09;;;;;;;12.70;8.25;;;;;;;;;;5040250;28;20427;-72
2022/06/22 06:45:35;;;;;;;12.77;8.88;;;;;;;;;;5038698;28;20496;-72
2022/06/22 06:48:03;;;;;;;11.30;8.30;;;;;;;;;;5039278;28;20415;-72
2022/06/22 06:50:32;;;;;;;14.52;9.27;;;;;;;;;;5041272;28;20431;-72
2022/06/22 06:53:02;;;;;;;13.98;7.85;;;;;;;;;;5039733;28;20428;-72
2022/06/22 06:55:33;;;;;;;9.13;7.88;;;;;;;;;;5041821;28;20434;-72
2022/06/22 06:58:06;;;;;;;12.93;8.45;;;;;;;;;;5037991;28;20414;-72
2022/06/22 07:00:32;;;;;;;12.05;7.32;;;;;;;;;;5040868;28;20498;-72
2022/06/22 07:03:00;;;;;;;9.15;7.30;;;;;;;;;;5040014;28;20416;-72
2022/06/22 07:05:27;;;;;;;12.20;7.60;;;;;;;;;;5039383;28;20437;-73
2022/06/22 07:07:55;;;;;;;12.00;6.35;;;;;;;;;;5038068;28;20421;-73
2022/06/22 07:10:25;;;;;;;10.70;7.38;;;;;;;;;;5041177;28;20797;-73
2022/06/22 07:12:53;;;;;;;10.60;7.15;;;;;;;;;;5039107;28;20419;-73
2022/06/22 07:15:23;;;;;;;11.53;7.80;;;;;;;;;;5038805;28;20419;-72
2022/06/22 07:17:51;;;;;;;11.35;7.43;;;;;;;;;;5038636;28;20417;-73
2022/06/22 07:20:19;;;;;;;12.82;8.43;;;;;;;;;;5038310;28;20776;-73
2022/06/22 07:22:48;;;;;;;10.30;7.10;;;;;;;;;;5035538;28;20414;-73
2022/06/22 07:25:19;;;;;;;10.85;8.23;;;;;;;;;;5039635;28;20950;-73
2022/06/22 07:27:49;;;;;;;13.90;8.48;;;;;;;;;;5037617;28;20423;-73
2022/06/22 07:30:18;;;;;;;9.20;7.68;;;;;;;;;;5038932;28;20476;-73
2022/06/22 07:32:49;;;;;;;11.73;7.97;;;;;;;;;;5039548;28;20519;-73
2022/06/22 07:35:19;;;;;;;11.63;7.60;;;;;;;;;;5038745;28;20426;-73
2022/06/22 07:37:50;;;;;;;11.38;7.60;;;;;;;;;;5039024;28;20912;-73
2022/06/22 07:40:18;;;;;;;9.65;6.70;;;;;;;;;;5036861;28;20455;-74
2022/06/22 07:42:46;;;;;;;12.43;6.20;;;;;;;;;;5039784;28;20427;-73
2022/06/22 07:45:13;;;;;;;9.85;6.68;;;;;;;;;;5039877;28;20604;-73
2022/06/22 07:47:42;;;;;;;9.82;7.00;;;;;;;;;;5039360;28;20409;-73
2022/06/22 07:50:14;;;;;;;8.88;6.20;;;;;;;;;;5038937;28;20799;-73
2022/06/22 07:52:42;;;;;;;11.27;6.83;;;;;;;;;;5038016;28;20777;-73
2022/06/22 07:55:16;;;;;;;11.48;6.75;;;;;;;;;;5037370;28;20439;-73
2022/06/22 07:57:47;;;;;;;9.35;6.30;;;;;;;;;;5037550;28;20758;-73
2022/06/22 08:00:15;;;;;;;9.45;5.68;;;;;;;;;;5039093;28;20417;-73
2022/06/22 08:02:46;;;;;;;10.10;6.45;;;;;;;;;;5040528;28;20423;-73
2022/06/22 08:05:15;;;;;;;9.80;6.00;;;;;;;;;;5038135;28;20775;-73
2022/06/22 08:07:43;;;;;;;11.45;6.40;;;;;;;;;;5036739;28;20487;-73
2022/06/22 08:10:13;;;;;;;10.65;6.30;;;;;;;;;;5038036;28;20819;-73
2022/06/22 08:12:45;;;;;;;9.70;6.30;;;;;;;;;;5038020;28;20423;-73
2022/06/22 08:15:16;;;;;;;10.20;6.70;;;;;;;;;;5038006;28;20776;-74
2022/06/22 08:17:43;;;;;;;12.33;7.67;;;;;;;;;;5038124;28;20425;-74
2022/06/22 08:20:11;;;;;;;10.70;7.70;;;;;;;;;;5039065;28;20422;-74
2022/06/22 08:22:39;;;;;;;12.00;8.03;;;;;;;;;;5037967;28;20423;-73
2022/06/22 08:25:07;;;;;;;11.40;7.20;;;;;;;;;;5037298;28;20433;-73
2022/06/22 08:27:33;;;;;;;13.20;7.90;;;;;;;;;;5037320;28;20928;-74
2022/06/22 08:30:00;;;;;;;15.10;8.18;;;;;;;;;;5038339;28;20415;-73
2022/06/22 08:32:30;;;;;;;11.70;8.00;;;;;;;;;;5036998;28;20439;-73
2022/06/22 08:34:57;;;;;;;13.68;7.78;;;;;;;;;;5038380;28;20545;-74
2022/06/22 08:37:27;;;;;;;9.23;7.60;;;;;;;;;;5039039;28;20426;-73
2022/06/22 08:39:57;;;;;;;13.47;7.40;;;;;;;;;;5039431;28;20767;-73
2022/06/22 08:42:38;;;;;;;10.25;7.47;;;;;;;;;;5037100;28;20469;-74
2022/06/22 08:45:19;;;;;;;14.53;8.13;;;;;;;;;;5038152;28;20435;-74
2022/06/22 08:48:05;;;;;;;13.70;7.88;;;;;;;;;;5038396;28;20432;-74
2022/06/22 08:50:40;;;;;;;10.82;7.30;;;;;;;;;;5037055;28;20453;-71
2022/06/22 08:53:28;;;;;;;10.05;7.10;;;;;;;;;;5038801;28;20460;-71
2022/06/22 08:56:07;;;;;;;12.35;8.30;;;;;;;;;;5030477;28;20490;-71
2022/06/22 08:58:39;;;;;;;12.40;8.43;;;;;;;;;;5037704;28;20471;-71
2022/06/22 09:01:11;;;;;;;11.25;8.00;;;;;;;;;;5036151;28;20432;-72
2022/06/22 09:03:51;;;;;;;14.85;8.10;;;;;;;;;;5037945;28;20442;-71
2022/06/22 09:06:26;;;;;;;12.02;7.65;;;;;;;;;;5037927;28;20418;-71
2022/06/22 09:09:02;;;;;;;10.50;7.57;;;;;;;;;;5037703;28;20457;-71
2022/06/22 09:11:31;;;;;;;9.88;6.13;;;;;;;;;;5039564;28;20413;-71
2022/06/22 09:14:17;;;;;;;12.57;8.00;;;;;;;;;;5038028;28;20445;-72
2022/06/22 09:16:55;;;;;;;13.43;7.35;;;;;;;;;;5038045;28;20437;-71
2022/06/22 09:19:37;;;;;;;8.73;7.10;;;;;;;;;;5038400;28;20974;-71
2022/06/22 09:22:13;;;;;;;9.20;6.50;;;;;;;;;;5039311;28;20425;-72
2022/06/22 09:24:45;;;;;;;10.40;7.20;;;;;;;;;;5041368;28;20429;-71
2022/06/22 09:27:16;;;;;;;9.55;7.57;;;;;;;;;;5043198;28;20413;-72
2022/06/22 09:29:50;;;;;;;8.70;6.50;;;;;;;;;;5041420;28;20820;-72
2022/06/22 09:32:26;;;;;;;12.73;7.10;;;;;;;;;;5041297;28;20444;-72
2022/06/22 09:34:57;;;;;;;12.20;7.60;;;;;;;;;;5038826;28;20453;-71
2022/06/22 09:37:30;;;;;;;10.50;7.13;;;;;;;;;;5040646;28;20525;-72
2022/06/22 09:40:09;;;;;;;13.33;7.40;;;;;;;;;;5041387;28;20897;-72
2022/06/22 09:42:46;;;;;;;9.13;6.97;;;;;;;;;;5041609;28;20473;-72
2022/06/22 09:45:26;;;;;;;11.07;6.10;;;;;;;;;;5042204;28;20431;-72
2022/06/22 09:48:10;;;;;;;9.05;6.32;;;;;;;;;;5041350;28;20430;-72
2022/06/22 09:50:51;;;;;;;10.02;6.50;;;;;;;;;;5026343;28;20435;-71
2022/06/22 09:53:35;;;;;;;9.95;5.65;;;;;;;;;;5040411;28;20423;-72
2022/06/22 09:56:20;;;;;;;8.00;5.40;;;;;;;;;;5040026;28;20413;-72
2022/06/22 09:58:55;;;;;;;8.20;5.00;;;;;;;;;;5040593;28;20443;-72
2022/06/22 10:01:27;;;;;;;7.45;4.40;;;;;;;;;;5042848;28;20433;-72
2022/06/22 10:04:07;;;;;;;11.05;5.82;;;;;;;;;;5040581;28;20439;-72
2022/06/22 10:06:41;;;;;;;7.50;5.63;;;;;;;;;;5040833;28;20445;-71
2022/06/22 10:09:21;;;;;;;9.25;6.15;;;;;;;;;;5039260;28;20418;-71
2022/06/22 10:11:51;;;;;;;7.07;5.85;;;;;;;;;;5039528;28;20443;-71
2022/06/22 10:14:31;;;;;;;10.35;6.70;;;;;;;;;;5039787;28;20414;-72
2022/06/22 10:17:02;;;;;;;10.40;7.15;;;;;;;;;;5040783;28;20435;-72
2022/06/22 10:19:34;;;;;;;12.25;6.45;;;;;;;;;;5041734;28;20433;-71
2022/06/22 10:22:13;;;;;;;8.20;6.00;;;;;;;;;;5038875;28;20435;-72
2022/06/22 10:24:54;;;;;;;9.65;6.90;;;;;;;;;;5039852;28;20424;-71
2022/06/22 10:27:41;;;;;;;13.10;7.05;;;;;;;;;;5037014;28;20459;-72
2022/06/22 10:30:19;;;;;;;9.57;6.90;;;;;;;;;;5013505;28;20798;-72
2022/06/22 10:33:03;;;;;;;11.02;6.32;;;;;;;;;;5039367;28;20417;-71
2022/06/22 10:35:42;;;;;;;9.93;6.53;;;;;;;;;;5041667;28;20408;-72
2022/06/22 10:38:13;;;;;;;9.40;6.50;;;;;;;;;;5039925;28;20423;-72
2022/06/22 10:46:38;;;;;;;10.43;6.40;;;;;;;;;;5040359;28;20433;-71
2022/06/22 10:49:19;;;;;;;9.20;5.50;;;;;;;;;;5039093;28;20425;-72
2022/06/22 10:52:02;;;;;;;7.68;5.20;;;;;;;;;;5037426;28;20427;-72
2022/06/22 10:54:45;;;;;;;6.78;4.57;;;;;;;;;;5039244;28;20427;-72
2022/06/22 10:57:19;;;;;;;7.37;5.30;;;;;;;;;;5038129;28;20439;-72
2022/06/22 11:00:03;;;;;;;6.35;5.15;;;;;;;;;;5037521;28;20468;-72
2022/06/22 11:02:50;;;;;;;9.52;5.40;;;;;;;;;;5037914;28;20500;-71
2022/06/22 11:05:44;;;;;;;6.65;5.03;;;;;;;;;;5004664;28;20434;-71
2022/06/22 11:08:29;;;;;;;6.63;5.07;;;;;;;;;;5037418;28;20423;-72
2022/06/22 11:11:03;;;;;;;7.93;5.67;;;;;;;;;;5039234;28;20414;-72
2022/06/22 11:13:42;;;;;;;8.00;4.90;;;;;;;;;;5037191;28;20423;-72
2022/06/22 11:16:19;;;;;;;10.07;5.20;;;;;;;;;;5037608;28;20432;-71
2022/06/22 11:18:57;;;;;;;9.60;4.93;;;;;;;;;;5037131;28;20898;-72
2022/06/22 11:21:32;;;;;;;9.30;5.30;;;;;;;;;;5039470;28;20425;-72
2022/06/22 11:24:13;;;;;;;8.60;5.50;;;;;;;;;;5038884;28;20426;-72
2022/06/22 11:32:39;;;;;;;10.18;5.10;;;;;;;;;;5039462;28;20422;-72
2022/06/22 11:35:26;;;;;;;7.88;4.70;;;;;;;;;;5037848;28;20756;-72
2022/06/22 11:38:01;;;;;;;6.82;4.38;;;;;;;;;;5039293;28;20766;-72
2022/06/22 11:40:38;;;;;;;4.70;4.20;;;;;;;;;;5065584;22;20817;-75
2022/06/22 11:43:12;;;;;;;8.73;4.60;;;;;;;;;;5079238;28;20911;-75
2022/06/22 11:45:54;;;;;;;8.10;4.35;;;;;;;;;;5077052;28;20428;-75
2022/06/22 11:48:30;;;;;;;5.50;3.97;;;;;;;;;;5077549;28;20420;-75
2022/06/22 11:51:03;;;;;;;6.88;4.00;;;;;;;;;;5078101;28;20426;-75
2022/06/22 11:53:39;;;;;;;5.68;4.10;;;;;;;;;;5077216;28;20425;-75
2022/06/22 11:56:13;;;;;;;6.80;4.78;;;;;;;;;;5076174;28;20423;-75
2022/06/22 11:58:45;;;;;;;8.67;4.40;;;;;;;;;;5078081;28;20423;-75
2022/06/22 12:01:26;;;;;;;8.05;4.00;;;;;;;;;;5079535;28;20411;-75
2022/06/22 12:04:08;;;;;;;8.93;4.55;;;;;;;;;;5072335;28;20423;-75
2022/06/22 12:06:54;;;;;;;6.07;3.90;;;;;;;;;;5074573;28;20442;-75
2022/06/22 12:09:31;;;;;;;7.40;4.30;;;;;;;;;;5078170;28;20541;-75
2022/06/22 12:12:12;;;;;;;6.20;4.10;;;;;;;;;;5076409;28;20432;-75
2022/06/22 12:17:34;;;;;;;7.75;4.22;;;;;;;;;;5075589;28;20431;-75
2022/06/22 12:20:05;;;;;;;7.35;3.78;;;;;;;;;;5077744;28;20777;-75
2022/06/22 12:22:37;;;;;;;4.57;3.67;;;;;;;;;;5076739;28;20409;-75
2022/06/22 12:25:19;;;;;;;6.13;4.10;;;;;;;;;;5077209;28;20433;-75
2022/06/22 12:27:49;;;;;;;7.65;3.70;;;;;;;;;;5074031;28;20412;-75
2022/06/22 12:30:20;;;;;;;6.80;4.30;;;;;;;;;;5077926;28;20423;-75
2022/06/22 12:32:49;;;;;;;7.00;4.30;;;;;;;;;;5075662;28;20427;-75
2022/06/22 12:35:18;;;;;;;4.65;3.90;;;;;;;;;;5076025;28;20415;-75
2022/06/22 12:37:47;;;;;;;6.10;3.97;;;;;;;;;;5077110;28;20491;-75
2022/06/22 12:40:19;;;;;;;4.35;3.55;;;;;;;;;;5077206;28;20534;-75
2022/06/22 12:43:02;;;;;;;4.60;3.55;;;;;;;;;;5076131;28;20446;-75
2022/06/22 12:45:35;;;;;;;5.72;3.70;;;;;;;;;;5077517;28;20428;-75
2022/06/22 12:48:17;;;;;;;6.88;3.60;;;;;;;;;;5075208;28;20444;-75
2022/06/22 12:50:49;;;;;;;4.85;3.40;;;;;;;;;;5076927;28;20432;-75
2022/06/22 12:53:19;;;;;;;4.80;3.45;;;;;;;;;;5076574;28;20422;-75
2022/06/22 12:55:50;;;;;;;9.50;3.85;;;;;;;;;;5078399;28;20405;-75
2022/06/22 12:58:18;;;;;;;5.80;3.28;;;;;;;;;;5080370;28;20426;-75
2022/06/22 13:00:44;;;;;;;6.20;3.35;;;;;;;;;;5078139;28;21058;-75
2022/06/22 13:03:16;;;;;;;4.50;3.30;;;;;;;;;;5078279;28;20504;-75
2022/06/22 13:05:42;;;;;;;6.35;4.03;;;;;;;;;;5080922;28;20813;-75
2022/06/22 13:08:10;;;;;;;6.00;3.97;;;;;;;;;;5080578;28;20428;-75
2022/06/22 13:10:41;;;;;;;5.60;3.90;;;;;;;;;;5081626;28;20410;-75
2022/06/22 13:13:10;;;;;;;5.03;3.50;;;;;;;;;;5079968;28;20513;-75
2022/06/22 13:15:39;;;;;;;7.72;3.80;;;;;;;;;;5076718;28;20423;-74
2022/06/22 13:18:07;;;;;;;6.93;3.70;;;;;;;;;;5080783;28;20422;-73
2022/06/22 13:20:39;;;;;;;5.70;3.50;;;;;;;;;;5080976;28;20416;-74
2022/06/22 13:23:06;;;;;;;4.35;3.50;;;;;;;;;;5080358;28;20419;-74
2022/06/22 13:25:35;;;;;;;5.60;3.60;;;;;;;;;;5076843;28;20435;-74
2022/06/22 13:28:08;;;;;;;5.60;3.10;;;;;;;;;;5079779;28;20415;-74
2022/06/22 13:30:37;;;;;;;6.25;3.83;;;;;;;;;;5079733;28;20491;-74
2022/06/22 13:33:05;;;;;;;4.38;3.28;;;;;;;;;;5080230;28;20777;-74
2022/06/22 13:35:33;;;;;;;4.97;3.20;;;;;;;;;;5079277;28;20817;-74
2022/06/22 13:38:05;;;;;;;7.22;3.60;;;;;;;;;;5078506;28;20761;-74
2022/06/22 13:40:38;;;;;;;3.92;3.05;;;;;;;;;;5080630;28;20430;-73
2022/06/22 13:43:14;;;;;;;4.90;3.30;;;;;;;;;;5079986;28;20423;-74
2022/06/22 13:45:47;;;;;;;3.75;2.90;;;;;;;;;;5078866;28;20427;-74
2022/06/22 13:48:18;;;;;;;5.30;3.08;;;;;;;;;;5079582;28;20791;-74
2022/06/22 13:51:06;;;;;;;5.90;3.63;;;;;;;;;;5077274;28;20919;-74
2022/06/22 13:53:38;;;;;;;4.87;3.10;;;;;;;;;;5079861;28;20418;-74
2022/06/22 13:56:09;;;;;;;6.30;3.53;;;;;;;;;;5079832;28;20408;-74
2022/06/22 13:58:37;;;;;;;3.50;2.85;;;;;;;;;;5079611;28;20414;-74
2022/06/22 14:01:08;;;;;;;5.20;3.10;;;;;;;;;;5077498;28;20431;-74
2022/06/22 14:03:39;;;;;;;6.00;3.13;;;;;;;;;;5078889;28;20420;-74
2022/06/22 14:06:12;;;;;;;6.57;3.50;;;;;;;;;;5080436;28;20434;-74
2022/06/22 14:08:43;;;;;;;6.55;3.40;;;;;;;;;;5077576;28;20418;-74
2022/06/22 14:11:13;;;;;;;9.23;3.45;;;;;;;;;;5079427;28;20413;-74
2022/06/22 14:13:42;;;;;;;5.15;3.10;;;;;;;;;;5078117;28;20416;-74
2022/06/22 14:16:14;;;;;;;5.37;3.00;;;;;;;;;;5079449;28;20434;-74
2022/06/22 14:18:42;;;;;;;5.00;3.30;;;;;;;;;;5078026;28;20420;-74
2022/06/22 14:21:15;;;;;;;4.57;3.00;;;;;;;;;;5079305;28;20449;-74
2022/06/22 14:23:42;;;;;;;6.72;3.15;;;;;;;;;;5079619;28;20413;-74
2022/06/22 14:26:24;;;;;;;4.20;2.83;;;;;;;;;;5077499;28;20433;-74
2022/06/22 14:28:54;;;;;;;4.88;2.80;;;;;;;;;;5079704;28;20423;-74
2022/06/22 14:31:24;;;;;;;4.93;3.00;;;;;;;;;;5079158;28;20416;-74
2022/06/22 14:33:56;;;;;;;6.10;3.78;;;;;;;;;;5080200;28;20418;-74
2022/06/22 14:36:25;;;;;;;6.90;4.00;;;;;;;;;;5079562;28;20412;-74
2022/06/22 14:38:57;;;;;;;5.75;3.38;;;;;;;;;;5079022;28;20929;-74
2022/06/22 14:41:26;;;;;;;6.47;3.30;;;;;;;;;;5077969;28;20768;-74
2022/06/22 14:43:56;;;;;;;6.88;3.80;;;;;;;;;;5077170;28;20425;-74
2022/06/22 14:46:28;;;;;;;6.78;3.40;;;;;;;;;;5078332;28;20787;-74
2022/06/22 14:48:57;;;;;;;6.63;3.60;;;;;;;;;;5076147;28;20429;-74
2022/06/22 14:51:31;;;;;;;4.05;3.10;;;;;;;;;;5078585;28;20419;-74
2022/06/22 14:54:01;;;;;;;6.83;3.77;;;;;;;;;;5078072;28;20419;-74
2022/06/22 14:56:29;;;;;;;6.63;4.60;;;;;;;;;;5078889;28;20427;-74
2022/06/22 14:58:58;;;;;;;7.78;3.92;;;;;;;;;;5076545;28;20423;-74
2022/06/22 15:01:28;;;;;;;8.60;3.90;;;;;;;;;;5078921;28;20425;-75
2022/06/22 15:03:57;;;;;;;6.63;3.53;;;;;;;;;;5076952;28;20871;-74
2022/06/22 15:06:42;;;;;;;6.32;4.20;;;;;;;;;;5078726;28;20429;-74
2022/06/22 15:09:11;;;;;;;7.40;4.43;;;;;;;;;;5075015;28;20418;-74
2022/06/22 15:14:38;;;;;;;5.45;3.78;;;;;;;;;;4958790;28;20428;-74
2022/06/22 15:17:10;;;;;;;5.70;4.25;;;;;;;;;;5049831;28;20412;-74
2022/06/22 15:19:37;;;;;;;6.05;4.30;;;;;;;;;;5078021;28;20413;-74
2022/06/22 15:22:05;;;;;;;9.80;4.70;;;;;;;;;;5077138;28;20434;-74
2022/06/22 15:24:39;;;;;;;7.93;4.57;;;;;;;;;;5078646;28;20525;-74